createdAt,value
2019-04-28T00:01:55.774Z,2.700000
2019-04-28T00:04:26.158Z,3.300000
2019-04-28T00:06:56.461Z,3.300000
2019-04-28T00:09:26.725Z,2.900000
2019-04-28T00:12:02.013Z,2.900000
2019-04-28T00:14:32.351Z,1.500000
2019-04-28T00:17:02.654Z,1.500000
2019-04-28T00:19:32.976Z,2.600000
2019-04-28T00:22:03.266Z,2.600000
2019-04-28T00:24:33.594Z,1.700000
2019-04-28T00:27:03.784Z,1.700000
2019-04-28T00:29:40.456Z,3.000000
2019-04-28T00:32:11.479Z,3.000000
2019-04-28T00:34:41.806Z,1.700000
2019-04-28T00:37:12.319Z,1.700000
2019-04-28T00:39:42.616Z,3.900000
2019-04-28T00:42:12.917Z,3.900000
2019-04-28T00:44:43.494Z,4.300000
2019-04-28T00:47:14.115Z,4.300000
2019-04-28T00:49:44.425Z,2.300000
2019-04-28T00:52:14.718Z,2.300000
2019-04-28T00:54:45.005Z,1.000000
2019-04-28T00:57:15.484Z,1.000000
2019-04-28T00:59:56.098Z,1.900000
2019-04-28T01:02:28.359Z,1.900000
2019-04-28T01:04:58.719Z,1.800000
2019-04-28T01:07:32.607Z,1.800000
2019-04-28T01:10:03.283Z,2.100000
2019-04-28T01:12:33.645Z,2.100000
2019-04-28T01:15:04.864Z,2.900000
2019-04-28T01:17:35.356Z,2.900000
2019-04-28T01:20:05.725Z,1.800000
2019-04-28T01:22:36.001Z,1.800000
2019-04-28T01:25:06.318Z,2.300000
2019-04-28T01:27:36.606Z,2.300000
2019-04-28T01:30:08.617Z,2.900000
2019-04-28T01:32:41.460Z,2.900000
2019-04-28T01:35:11.856Z,3.400000
2019-04-28T01:37:42.258Z,3.400000
2019-04-28T01:40:12.656Z,1.600000
2019-04-28T01:42:43.031Z,1.600000
2019-04-28T01:45:13.317Z,1.500000
2019-04-28T01:47:43.707Z,1.500000
2019-04-28T01:50:14.004Z,2.800000
2019-04-28T01:52:44.319Z,2.800000
2019-04-28T01:55:14.711Z,2.100000
2019-04-28T01:57:45.076Z,2.100000
2019-04-28T02:00:23.053Z,3.900000
2019-04-28T02:02:55.613Z,3.900000
2019-04-28T02:05:30.961Z,4.300000
2019-04-28T02:08:06.314Z,4.300000
2019-04-28T02:10:36.679Z,3.100000
2019-04-28T02:13:06.995Z,3.100000
2019-04-28T02:15:42.381Z,4.600000
2019-04-28T02:18:12.601Z,4.600000
2019-04-28T02:20:43.007Z,3.000000
2019-04-28T02:23:13.342Z,3.000000
2019-04-28T02:25:43.623Z,2.100000
2019-04-28T02:28:13.934Z,2.100000
2019-04-28T02:30:53.394Z,4.100000
2019-04-28T02:33:24.313Z,4.100000
2019-04-28T02:35:54.712Z,3.700000
2019-04-28T02:38:24.925Z,3.600000
2019-04-28T02:40:55.332Z,3.600000
2019-04-28T02:43:25.622Z,2.800000
2019-04-28T02:45:55.821Z,2.800000
2019-04-28T02:48:26.331Z,2.500000
2019-04-28T02:50:56.835Z,2.500000
2019-04-28T02:53:27.344Z,4.200000
2019-04-28T02:55:57.752Z,4.200000
2019-04-28T02:58:31.014Z,3.500000
2019-04-28T03:01:12.539Z,3.500000
2019-04-28T03:03:50.763Z,3.800000
2019-04-28T03:06:21.051Z,3.800000
2019-04-28T03:08:51.433Z,6.300000
2019-04-28T03:11:21.729Z,6.300000
2019-04-28T03:13:52.228Z,4.400000
2019-04-28T03:16:23.118Z,4.400000
2019-04-28T03:18:53.907Z,3.800000
2019-04-28T03:21:24.303Z,3.800000
2019-04-28T03:23:54.601Z,5.100000
2019-04-28T03:26:24.887Z,5.100000
2019-04-28T03:28:55.282Z,3.100000
2019-04-28T03:31:59.021Z,3.100000
2019-04-28T03:34:43.698Z,4.500000
2019-04-28T03:37:14.530Z,4.500000
2019-04-28T03:39:44.868Z,4.200000
2019-04-28T03:42:15.222Z,4.200000
2019-04-28T03:44:45.523Z,3.300000
2019-04-28T03:47:15.822Z,3.300000
2019-04-28T03:49:46.131Z,3.800000
2019-04-28T03:52:16.531Z,3.800000
2019-04-28T03:54:46.860Z,6.200000
2019-04-28T03:57:17.255Z,6.200000
2019-04-28T03:59:47.645Z,3.400000
2019-04-28T04:02:22.998Z,3.400000
2019-04-28T04:04:54.026Z,5.200000
2019-04-28T04:07:24.416Z,5.200000
2019-04-28T04:09:54.697Z,5.800000
2019-04-28T04:12:25.087Z,5.800000
2019-04-28T04:14:55.383Z,5.600000
2019-04-28T04:17:25.690Z,5.600000
2019-04-28T04:19:56.093Z,3.900000
2019-04-28T04:22:31.626Z,3.900000
2019-04-28T04:25:01.989Z,4.500000
2019-04-28T04:27:32.381Z,4.500000
2019-04-28T04:30:02.782Z,4.100000
2019-04-28T04:32:34.034Z,4.100000
2019-04-28T04:35:04.526Z,2.500000
2019-04-28T04:37:34.801Z,2.500000
2019-04-28T04:40:05.101Z,3.700000
2019-04-28T04:42:35.499Z,3.700000
2019-04-28T04:45:05.900Z,2.700000
2019-04-28T04:47:36.336Z,2.700000
2019-04-28T04:50:06.707Z,2.900000
2019-04-28T04:52:37.053Z,2.900000
2019-04-28T04:55:07.429Z,2.300000
2019-04-28T04:57:37.718Z,2.300000
2019-04-28T05:00:10.025Z,2.400000
2019-04-28T05:02:47.711Z,2.400000
2019-04-28T05:05:21.933Z,3.100000
2019-04-28T05:07:52.129Z,3.900000
2019-04-28T05:10:22.436Z,3.900000
2019-04-28T05:12:52.716Z,3.600000
2019-04-28T05:15:23.012Z,3.600000
2019-04-28T05:17:53.391Z,3.300000
2019-04-28T05:20:23.672Z,3.300000
2019-04-28T05:22:53.968Z,4.700000
2019-04-28T05:25:24.627Z,4.700000
2019-04-28T05:28:02.691Z,3.800000
2019-04-28T05:30:34.832Z,3.800000
2019-04-28T05:33:10.460Z,3.600000
2019-04-28T05:35:40.795Z,3.600000
2019-04-28T05:38:11.070Z,5.000000
2019-04-28T05:40:41.368Z,5.000000
2019-04-28T05:43:11.542Z,3.800000
2019-04-28T05:45:41.832Z,3.800000
2019-04-28T05:48:12.157Z,4.200000
2019-04-28T05:50:42.453Z,4.200000
2019-04-28T05:53:12.925Z,3.800000
2019-04-28T05:55:43.365Z,3.800000
2019-04-28T05:58:13.691Z,3.900000
2019-04-28T06:00:44.113Z,3.900000
2019-04-28T06:03:14.516Z,5.100000
2019-04-28T06:05:44.843Z,5.100000
2019-04-28T06:08:15.167Z,5.200000
2019-04-28T06:10:45.475Z,5.200000
2019-04-28T06:13:15.802Z,5.700000
2019-04-28T06:15:46.240Z,5.700000
2019-04-28T06:18:16.556Z,3.200000
2019-04-28T06:20:46.942Z,3.200000
2019-04-28T06:23:17.191Z,2.600000
2019-04-28T06:25:47.423Z,2.600000
2019-04-28T06:28:17.728Z,6.200000
2019-04-28T06:30:48.152Z,6.200000
2019-04-28T06:33:18.510Z,4.300000
2019-04-28T06:35:48.838Z,4.300000
2019-04-28T06:38:19.085Z,3.000000
2019-04-28T06:40:49.424Z,3.000000
2019-04-28T06:43:19.878Z,4.700000
2019-04-28T06:45:50.238Z,4.700000
2019-04-28T06:48:20.793Z,5.000000
2019-04-28T06:50:51.380Z,5.000000
2019-04-28T06:53:21.768Z,4.600000
2019-04-28T06:55:52.016Z,4.600000
2019-04-28T06:58:22.806Z,4.100000
2019-04-28T07:00:53.093Z,4.100000
2019-04-28T07:03:23.603Z,5.600000
2019-04-28T07:05:53.987Z,5.600000
2019-04-28T07:08:24.290Z,5.200000
2019-04-28T07:10:56.892Z,5.200000
2019-04-28T07:13:27.300Z,4.200000
2019-04-28T07:15:57.627Z,4.200000
2019-04-28T07:18:27.995Z,4.500000
2019-04-28T07:20:58.290Z,4.500000
2019-04-28T07:23:28.702Z,4.700000
2019-04-28T07:25:59.234Z,4.700000
2019-04-28T07:28:29.521Z,3.900000
2019-04-28T07:31:00.072Z,3.900000
2019-04-28T07:33:36.126Z,2.800000
2019-04-28T07:36:06.879Z,2.800000
2019-04-28T07:38:37.239Z,3.800000
2019-04-28T07:41:07.752Z,3.800000
2019-04-28T07:43:38.017Z,4.200000
2019-04-28T07:46:08.389Z,4.200000
2019-04-28T07:48:38.712Z,2.400000
2019-04-28T07:51:09.025Z,2.400000
2019-04-28T07:53:39.401Z,4.900000
2019-04-28T07:56:09.774Z,4.900000
2019-04-28T07:58:40.359Z,3.000000
2019-04-28T08:01:10.730Z,3.000000
2019-04-28T08:03:49.244Z,3.500000
2019-04-28T08:06:20.482Z,3.500000
2019-04-28T08:08:50.770Z,2.300000
2019-04-28T08:11:21.204Z,2.300000
2019-04-28T08:13:51.539Z,4.700000
2019-04-28T08:16:21.791Z,4.700000
2019-04-28T08:18:52.122Z,4.400000
2019-04-28T08:21:22.482Z,4.400000
2019-04-28T08:23:52.749Z,3.900000
2019-04-28T08:26:23.010Z,3.900000
2019-04-28T08:28:53.342Z,4.700000
2019-04-28T08:31:23.654Z,4.700000
2019-04-28T08:34:02.051Z,4.700000
2019-04-28T08:36:33.305Z,4.700000
2019-04-28T08:39:03.690Z,5.300000
2019-04-28T08:41:34.163Z,5.300000
2019-04-28T08:44:04.558Z,3.800000
2019-04-28T08:46:34.903Z,3.800000
2019-04-28T08:49:05.271Z,3.600000
2019-04-28T08:51:35.608Z,3.600000
2019-04-28T08:54:05.946Z,3.900000
2019-04-28T08:56:36.487Z,3.900000
2019-04-28T08:59:06.960Z,4.200000
2019-04-28T09:01:37.656Z,4.200000
2019-04-28T09:04:15.096Z,3.700000
2019-04-28T09:06:46.543Z,3.700000
2019-04-28T09:09:16.873Z,4.300000
2019-04-28T09:11:47.232Z,4.300000
2019-04-28T09:14:17.520Z,4.600000
2019-04-28T09:16:47.925Z,4.600000
2019-04-28T09:19:18.158Z,5.300000
2019-04-28T09:21:48.468Z,5.300000
2019-04-28T09:24:18.800Z,3.100000
2019-04-28T09:26:49.114Z,3.100000
2019-04-28T09:29:19.459Z,3.700000
2019-04-28T09:31:50.005Z,3.700000
2019-04-28T09:34:28.058Z,2.600000
2019-04-28T09:37:04.069Z,2.300000
2019-04-28T09:39:34.337Z,2.300000
2019-04-28T09:42:04.701Z,3.400000
2019-04-28T09:44:35.269Z,3.400000
2019-04-28T09:47:05.783Z,2.800000
2019-04-28T09:49:36.186Z,2.800000
2019-04-28T09:52:06.480Z,3.100000
2019-04-28T09:54:36.845Z,3.100000
2019-04-28T09:57:07.521Z,3.000000
2019-04-28T09:59:37.812Z,3.000000
2019-04-28T10:02:08.264Z,3.400000
2019-04-28T10:04:41.737Z,3.400000
2019-04-28T10:07:12.523Z,4.900000
2019-04-28T10:09:42.893Z,4.900000
2019-04-28T10:12:26.313Z,2.700000
2019-04-28T10:14:57.463Z,2.700000
2019-04-28T10:17:27.812Z,3.200000
2019-04-28T10:19:58.146Z,3.200000
2019-04-28T10:22:30.515Z,3.200000
2019-04-28T10:25:00.799Z,3.200000
2019-04-28T10:27:31.238Z,3.400000
2019-04-28T10:30:02.053Z,3.400000
2019-04-28T10:32:32.479Z,3.200000
2019-04-28T10:35:02.822Z,3.200000
2019-04-28T10:37:33.177Z,3.800000
2019-04-28T10:40:03.476Z,3.800000
2019-04-28T10:42:33.722Z,4.500000
2019-04-28T10:45:04.128Z,4.500000
2019-04-28T10:47:34.380Z,3.900000
2019-04-28T10:50:04.667Z,3.900000
2019-04-28T10:52:34.890Z,3.700000
2019-04-28T10:55:05.301Z,3.700000
2019-04-28T10:57:35.609Z,5.700000
2019-04-28T11:00:05.908Z,5.700000
2019-04-28T11:02:36.608Z,3.400000
2019-04-28T11:05:08.792Z,3.400000
2019-04-28T11:07:39.721Z,5.500000
2019-04-28T11:10:10.104Z,5.500000
2019-04-28T11:12:40.447Z,2.800000
2019-04-28T11:15:11.016Z,2.800000
2019-04-28T11:17:41.421Z,8.500000
2019-04-28T11:20:11.717Z,8.500000
2019-04-28T11:22:42.034Z,7.100000
2019-04-28T11:25:12.531Z,7.100000
2019-04-28T11:27:42.850Z,3.400000
2019-04-28T11:30:13.260Z,3.400000
2019-04-28T11:32:43.741Z,2.500000
2019-04-28T11:35:21.488Z,2.500000
2019-04-28T11:37:52.544Z,2.800000
2019-04-28T11:40:23.061Z,2.800000
2019-04-28T11:42:53.357Z,3.000000
2019-04-28T11:45:23.658Z,3.000000
2019-04-28T11:47:54.380Z,2.100000
2019-04-28T11:50:25.280Z,2.100000
2019-04-28T11:52:55.674Z,1.500000
2019-04-28T11:55:26.090Z,1.500000
2019-04-28T11:57:56.413Z,2.400000
2019-04-28T12:00:26.738Z,2.400000
2019-04-28T12:02:57.021Z,2.700000
2019-04-28T12:05:34.319Z,2.700000
2019-04-28T12:08:05.486Z,2.000000
2019-04-28T12:10:35.809Z,2.000000
2019-04-28T12:13:06.259Z,2.600000
2019-04-28T12:15:36.688Z,2.600000
2019-04-28T12:18:07.116Z,1.700000
2019-04-28T12:20:37.448Z,1.700000
2019-04-28T12:23:09.774Z,2.300000
2019-04-28T12:25:40.250Z,2.300000
2019-04-28T12:28:10.738Z,2.100000
2019-04-28T12:30:41.496Z,2.100000
2019-04-28T12:33:11.940Z,1.800000
2019-04-28T12:35:47.922Z,1.800000
2019-04-28T12:38:18.628Z,1.500000
2019-04-28T12:40:48.949Z,1.500000
2019-04-28T12:43:19.177Z,2.700000
2019-04-28T12:45:49.614Z,2.700000
2019-04-28T12:48:19.851Z,3.300000
2019-04-28T12:50:50.158Z,3.300000
2019-04-28T12:53:20.386Z,2.200000
2019-04-28T12:55:50.747Z,2.200000
2019-04-28T12:58:21.099Z,3.900000
2019-04-28T13:00:51.680Z,3.900000
2019-04-28T13:03:22.032Z,4.000000
2019-04-28T13:06:02.368Z,4.000000
2019-04-28T13:08:35.790Z,3.500000
2019-04-28T13:11:06.081Z,3.500000
2019-04-28T13:13:36.480Z,4.000000
2019-04-28T13:16:06.790Z,4.000000
2019-04-28T13:18:37.100Z,3.900000
2019-04-28T13:21:07.495Z,3.900000
2019-04-28T13:23:38.032Z,2.600000
2019-04-28T13:26:08.395Z,2.600000
2019-04-28T13:28:38.723Z,2.400000
2019-04-28T13:31:09.093Z,2.400000
2019-04-28T13:33:53.769Z,2.400000
2019-04-28T13:36:26.535Z,4.200000
2019-04-28T13:38:56.920Z,4.200000
2019-04-28T13:41:27.235Z,3.000000
2019-04-28T13:43:57.523Z,3.000000
2019-04-28T13:46:28.042Z,5.400000
2019-04-28T13:48:58.446Z,5.400000
2019-04-28T13:51:28.846Z,3.200000
2019-04-28T13:53:59.164Z,3.200000
2019-04-28T13:56:29.687Z,4.000000
2019-04-28T13:59:00.079Z,4.000000
2019-04-28T14:01:30.469Z,2.700000
2019-04-28T14:04:01.018Z,2.700000
2019-04-28T14:06:31.355Z,3.700000
2019-04-28T14:09:01.750Z,3.700000
2019-04-28T14:11:34.131Z,2.300000
2019-04-28T14:14:04.662Z,2.300000
2019-04-28T14:16:35.216Z,2.500000
2019-04-28T14:19:05.705Z,2.500000
2019-04-28T14:21:36.009Z,3.500000
2019-04-28T14:24:06.361Z,3.500000
2019-04-28T14:26:39.822Z,3.600000
2019-04-28T14:29:10.675Z,3.600000
2019-04-28T14:31:41.221Z,4.500000
2019-04-28T14:34:11.583Z,4.500000
2019-04-28T14:36:42.624Z,4.500000
2019-04-28T14:39:13.102Z,4.500000
2019-04-28T14:41:43.490Z,3.600000
2019-04-28T14:44:13.861Z,3.600000
2019-04-28T14:46:44.458Z,7.900000
2019-04-28T14:49:14.817Z,7.900000
2019-04-28T14:51:45.274Z,5.100000
2019-04-28T14:54:16.889Z,5.100000
2019-04-28T14:56:47.363Z,7.600000
2019-04-28T14:59:17.873Z,7.600000
2019-04-28T15:01:48.187Z,2.600000
2019-04-28T15:04:20.853Z,2.600000
2019-04-28T15:06:55.725Z,3.100000
2019-04-28T15:09:27.314Z,3.100000
2019-04-28T15:11:57.939Z,2.900000
2019-04-28T15:14:28.227Z,2.900000
2019-04-28T15:16:58.748Z,3.500000
2019-04-28T15:19:29.060Z,3.500000
2019-04-28T15:21:59.864Z,2.300000
2019-04-28T15:24:30.233Z,2.300000
2019-04-28T15:27:00.546Z,2.300000
2019-04-28T15:29:30.890Z,2.300000
2019-04-28T15:32:01.360Z,2.000000
2019-04-28T15:34:31.975Z,2.000000
2019-04-28T15:37:09.465Z,1.800000
2019-04-28T15:39:41.140Z,1.800000
2019-04-28T15:42:11.476Z,2.700000
2019-04-28T15:44:41.836Z,2.700000
2019-04-28T15:47:12.178Z,2.300000
2019-04-28T15:49:42.535Z,2.300000
2019-04-28T15:52:12.878Z,2.300000
2019-04-28T15:54:43.430Z,2.300000
2019-04-28T15:57:13.777Z,1.900000
2019-04-28T15:59:44.154Z,1.900000
2019-04-28T16:02:14.494Z,1.800000
2019-04-28T16:04:44.850Z,1.800000
2019-04-28T16:07:24.587Z,2.100000
2019-04-28T16:09:55.704Z,2.100000
2019-04-28T16:12:26.073Z,2.300000
2019-04-28T16:14:56.288Z,2.300000
2019-04-28T16:17:26.724Z,1.900000
2019-04-28T16:19:57.066Z,1.900000
2019-04-28T16:22:32.503Z,1.900000
2019-04-28T16:25:02.854Z,1.900000
2019-04-28T16:27:33.293Z,2.700000
2019-04-28T16:30:03.674Z,2.700000
2019-04-28T16:32:33.989Z,3.200000
2019-04-28T16:35:04.339Z,3.200000
2019-04-28T16:37:39.049Z,2.100000
2019-04-28T16:40:09.862Z,2.100000
2019-04-28T16:42:40.345Z,1.500000
2019-04-28T16:45:10.674Z,1.500000
2019-04-28T16:47:40.990Z,1.500000
2019-04-28T16:50:11.327Z,1.500000
2019-04-28T16:52:41.655Z,1.300000
2019-04-28T16:55:12.001Z,1.300000
2019-04-28T16:57:42.323Z,1.100000
2019-04-28T17:00:12.854Z,1.100000
2019-04-28T17:02:43.206Z,3.100000
2019-04-28T17:05:13.625Z,3.100000
2019-04-28T17:07:52.440Z,1.300000
2019-04-28T17:10:23.834Z,1.300000
2019-04-28T17:12:54.115Z,2.800000
2019-04-28T17:15:24.607Z,2.800000
2019-04-28T17:17:54.911Z,3.000000
2019-04-28T17:20:25.124Z,3.000000
2019-04-28T17:22:55.430Z,2.700000
2019-04-28T17:25:26.054Z,2.800000
2019-04-28T17:27:56.669Z,2.800000
2019-04-28T17:30:26.962Z,2.400000
2019-04-28T17:32:57.162Z,2.400000
2019-04-28T17:35:27.494Z,1.800000
2019-04-28T17:38:06.323Z,1.800000
2019-04-28T17:40:37.791Z,1.800000
2019-04-28T17:43:08.310Z,1.800000
2019-04-28T17:45:38.587Z,4.200000
2019-04-28T17:48:08.881Z,4.200000
2019-04-28T17:50:39.363Z,2.500000
2019-04-28T17:53:09.662Z,2.500000
2019-04-28T17:55:40.075Z,2.900000
2019-04-28T17:58:10.507Z,2.900000
2019-04-28T18:00:41.020Z,1.600000
2019-04-28T18:03:11.528Z,1.600000
2019-04-28T18:05:46.872Z,1.900000
2019-04-28T18:08:21.138Z,1.900000
2019-04-28T18:10:51.875Z,1.400000
2019-04-28T18:13:22.242Z,1.400000
2019-04-28T18:15:52.799Z,1.700000
2019-04-28T18:18:23.071Z,1.700000
2019-04-28T18:20:53.357Z,1.500000
2019-04-28T18:23:24.260Z,1.500000
2019-04-28T18:25:54.604Z,1.500000
2019-04-28T18:28:24.969Z,1.500000
2019-04-28T18:30:55.472Z,2.100000
2019-04-28T18:33:26.083Z,2.100000
2019-04-28T18:35:57.045Z,1.700000
2019-04-28T18:38:34.878Z,1.700000
2019-04-28T18:41:05.841Z,1.300000
2019-04-28T18:43:36.214Z,1.300000
2019-04-28T18:46:06.551Z,2.000000
2019-04-28T18:48:37.303Z,2.000000
2019-04-28T18:51:07.694Z,1.500000
2019-04-28T18:53:38.124Z,1.500000
2019-04-28T18:56:08.796Z,1.500000
2019-04-28T18:58:39.588Z,1.500000
2019-04-28T19:01:09.912Z,1.400000
2019-04-28T19:03:40.273Z,1.400000
2019-04-28T19:06:10.654Z,1.600000
2019-04-28T19:11:16.161Z,1.700000
2019-04-28T19:13:46.492Z,1.700000
2019-04-28T19:16:17.664Z,1.700000
2019-04-28T19:18:47.999Z,1.700000
2019-04-28T19:21:18.238Z,2.100000
2019-04-28T19:23:48.624Z,2.100000
2019-04-28T19:26:18.927Z,1.700000
2019-04-28T19:28:49.616Z,1.700000
2019-04-28T19:31:19.905Z,1.400000
2019-04-28T19:33:50.693Z,1.400000
2019-04-28T19:36:20.897Z,2.200000
2019-04-28T19:39:02.624Z,2.200000
2019-04-28T19:41:34.041Z,1.600000
2019-04-28T19:44:05.111Z,1.600000
2019-04-28T19:46:35.494Z,1.600000
2019-04-28T19:49:05.893Z,1.600000
2019-04-28T19:51:36.345Z,2.400000
2019-04-28T19:54:06.614Z,2.400000
2019-04-28T19:56:37.059Z,1.700000
2019-04-28T19:59:07.484Z,1.700000
2019-04-28T20:01:38.056Z,2.600000
2019-04-28T20:04:13.532Z,2.600000
2019-04-28T20:06:44.167Z,2.100000
2019-04-28T20:09:14.472Z,2.100000
2019-04-28T20:11:44.720Z,1.800000
2019-04-28T20:14:15.216Z,1.800000
2019-04-28T20:16:45.502Z,2.800000
2019-04-28T20:19:15.841Z,2.800000
2019-04-28T20:21:46.153Z,3.000000
2019-04-28T20:24:19.426Z,3.000000
2019-04-28T20:26:50.013Z,2.900000
2019-04-28T20:29:23.258Z,2.900000
2019-04-28T20:31:54.421Z,3.000000
2019-04-28T20:34:24.813Z,3.000000
2019-04-28T20:36:55.164Z,4.100000
2019-04-28T20:39:25.548Z,4.100000
2019-04-28T20:41:55.894Z,3.600000
2019-04-28T20:44:26.498Z,3.600000
2019-04-28T20:46:56.937Z,2.000000
2019-04-28T20:49:27.274Z,2.000000
2019-04-28T20:51:58.513Z,2.600000
2019-04-28T20:54:28.947Z,2.600000
2019-04-28T20:56:59.435Z,1.700000
2019-04-28T20:59:29.771Z,1.700000
2019-04-28T21:02:00.123Z,2.000000
2019-04-28T21:04:30.467Z,2.000000
2019-04-28T21:07:00.904Z,2.900000
2019-04-28T21:09:31.208Z,2.900000
2019-04-28T21:12:02.186Z,4.900000
2019-04-28T21:14:32.761Z,4.900000
2019-04-28T21:17:03.247Z,3.300000
2019-04-28T21:19:33.680Z,3.300000
2019-04-28T21:22:04.133Z,2.200000
2019-04-28T21:24:34.344Z,3.000000
2019-04-28T21:27:04.658Z,3.000000
2019-04-28T21:29:34.980Z,2.900000
2019-04-28T21:32:05.517Z,2.900000
2019-04-28T21:34:36.039Z,2.200000
2019-04-28T21:37:06.566Z,2.200000
2019-04-28T21:39:37.165Z,2.800000
2019-04-28T21:42:07.605Z,2.800000
2019-04-28T21:44:38.306Z,2.500000
2019-04-28T21:47:08.925Z,2.500000
2019-04-28T21:49:39.531Z,3.500000
2019-04-28T21:52:09.809Z,3.500000
2019-04-28T21:54:40.943Z,3.200000
2019-04-28T21:57:11.273Z,3.200000
2019-04-28T21:59:41.495Z,2.500000
2019-04-28T22:02:12.168Z,2.500000
2019-04-28T22:04:42.424Z,3.000000
2019-04-28T22:07:13.087Z,3.000000
2019-04-28T22:09:43.357Z,2.700000
2019-04-28T22:12:13.681Z,2.700000
2019-04-28T22:14:43.988Z,2.900000
2019-04-28T22:17:14.293Z,2.900000
2019-04-28T22:19:44.615Z,3.500000
2019-04-28T22:22:19.983Z,3.500000
2019-04-28T22:24:50.378Z,2.600000
2019-04-28T22:27:20.733Z,2.600000
2019-04-28T22:29:51.035Z,3.700000
2019-04-28T22:32:21.366Z,3.700000
2019-04-28T22:34:51.688Z,2.300000
2019-04-28T22:37:21.975Z,2.300000
2019-04-28T22:39:52.512Z,4.100000
2019-04-28T22:42:22.909Z,4.100000
2019-04-28T22:44:53.417Z,3.400000
2019-04-28T22:47:23.942Z,3.400000
2019-04-28T22:49:54.260Z,2.400000
2019-04-28T22:52:24.660Z,2.400000
2019-04-28T22:54:54.962Z,2.300000
2019-04-28T22:57:25.299Z,2.300000
2019-04-28T22:59:55.572Z,3.100000
2019-04-28T23:02:25.962Z,3.100000
2019-04-28T23:04:56.279Z,3.000000
2019-04-28T23:07:26.868Z,3.000000
2019-04-28T23:09:57.187Z,4.200000
2019-04-28T23:12:27.668Z,4.200000
2019-04-28T23:14:57.890Z,3.000000
2019-04-28T23:17:28.291Z,3.000000
2019-04-28T23:19:58.704Z,3.600000
2019-04-28T23:22:29.007Z,3.600000
2019-04-28T23:24:59.522Z,3.400000
2019-04-28T23:27:29.813Z,3.400000
2019-04-28T23:30:00.136Z,2.600000
2019-04-28T23:32:31.800Z,2.600000
2019-04-28T23:35:02.209Z,4.100000
2019-04-28T23:37:32.501Z,4.100000
2019-04-28T23:40:02.817Z,4.400000
2019-04-28T23:42:33.125Z,4.400000
2019-04-28T23:45:03.434Z,3.400000
2019-04-28T23:47:33.729Z,3.400000
2019-04-28T23:50:04.007Z,3.100000
2019-04-28T23:52:34.391Z,3.100000
2019-04-28T23:55:04.713Z,2.600000
2019-04-28T23:57:35.079Z,2.600000
